createdAt,value
2023-05-15T00:00:48.637Z,0
2023-05-15T00:02:04.926Z,0
2023-05-15T00:03:21.224Z,0
2023-05-15T00:04:36.529Z,0
2023-05-15T00:05:52.831Z,0
2023-05-15T00:07:09.109Z,0
2023-05-15T00:08:25.402Z,0
2023-05-15T00:09:41.701Z,0
2023-05-15T00:10:57.978Z,0
2023-05-15T00:12:14.282Z,0
2023-05-15T00:13:30.594Z,0
2023-05-15T00:14:46.886Z,0
2023-05-15T00:16:03.182Z,0
2023-05-15T00:17:19.463Z,0
2023-05-15T00:18:35.763Z,0
2023-05-15T00:19:52.036Z,0
2023-05-15T00:21:07.344Z,0
2023-05-15T00:22:23.667Z,0
2023-05-15T00:23:39.949Z,0
2023-05-15T00:24:56.000Z,0
2023-05-15T00:26:12.542Z,0
2023-05-15T00:27:28.834Z,0
2023-05-15T00:28:45.138Z,0
2023-05-15T00:30:01.426Z,0
2023-05-15T00:31:17.735Z,0
2023-05-15T00:32:34.013Z,0
2023-05-15T00:33:50.310Z,0
2023-05-15T00:35:06.596Z,0
2023-05-15T00:36:22.902Z,0
2023-05-15T00:37:38.220Z,0
2023-05-15T00:38:54.504Z,0
2023-05-15T00:40:10.804Z,0
2023-05-15T00:41:27.099Z,0
2023-05-15T00:42:43.382Z,0
2023-05-15T00:43:59.663Z,0
2023-05-15T00:45:15.978Z,0
2023-05-15T00:46:32.266Z,0
2023-05-15T00:47:48.576Z,0
2023-05-15T00:49:04.851Z,0
2023-05-15T00:50:21.142Z,0
2023-05-15T00:51:37.445Z,0
2023-05-15T00:52:53.756Z,0
2023-05-15T00:54:09.062Z,0
2023-05-15T00:55:25.361Z,0
2023-05-15T00:56:41.638Z,0
2023-05-15T00:57:57.918Z,0
2023-05-15T00:59:14.232Z,0
2023-05-15T01:00:30.537Z,0
2023-05-15T01:01:46.801Z,0
2023-05-15T01:03:03.114Z,0
2023-05-15T01:04:19.407Z,0
2023-05-15T01:05:35.686Z,0
2023-05-15T01:06:52.008Z,0
2023-05-15T01:08:08.301Z,0
2023-05-15T01:09:24.588Z,0
2023-05-15T01:10:39.897Z,0
2023-05-15T01:11:56.173Z,0
2023-05-15T01:13:12.472Z,0
2023-05-15T01:14:28.776Z,0
2023-05-15T01:15:45.091Z,0
2023-05-15T01:17:01.383Z,0
2023-05-15T01:18:17.664Z,0
2023-05-15T01:19:33.975Z,0
2023-05-15T01:20:50.250Z,0
2023-05-15T01:22:06.541Z,0
2023-05-15T01:23:22.839Z,0
2023-05-15T01:24:39.129Z,0
2023-05-15T01:25:55.430Z,0
2023-05-15T01:27:10.730Z,0
2023-05-15T01:28:27.032Z,0
2023-05-15T01:29:43.328Z,0
2023-05-15T01:30:59.630Z,0
2023-05-15T01:32:15.926Z,0
2023-05-15T01:33:32.225Z,0
2023-05-15T01:34:47.536Z,0
2023-05-15T01:36:03.825Z,0
2023-05-15T01:37:20.106Z,0
2023-05-15T01:38:36.412Z,0
2023-05-15T01:39:52.686Z,0
2023-05-15T01:41:09.015Z,0
2023-05-15T01:42:25.301Z,0
2023-05-15T01:43:41.595Z,0
2023-05-15T01:44:57.894Z,0
2023-05-15T01:46:14.187Z,0
2023-05-15T01:47:30.490Z,0
2023-05-15T01:48:46.785Z,0
2023-05-15T01:50:03.059Z,0
2023-05-15T01:51:18.377Z,0
2023-05-15T01:52:34.660Z,0
2023-05-15T01:53:50.970Z,0
2023-05-15T01:55:07.264Z,0
2023-05-15T01:56:23.555Z,0
2023-05-15T01:57:39.850Z,0
2023-05-15T01:58:56.133Z,0
2023-05-15T02:00:12.438Z,0
2023-05-15T02:01:28.726Z,0
2023-05-15T02:02:45.027Z,0
2023-05-15T02:04:01.333Z,0
2023-05-15T02:05:17.615Z,0
2023-05-15T02:06:33.893Z,0
2023-05-15T02:07:49.232Z,0
2023-05-15T02:09:05.497Z,0
2023-05-15T02:10:21.793Z,0
2023-05-15T02:11:38.077Z,0
2023-05-15T02:12:54.376Z,0
2023-05-15T02:14:10.666Z,0
2023-05-15T02:15:26.976Z,0
2023-05-15T02:16:43.252Z,0
2023-05-15T02:17:59.563Z,0
2023-05-15T02:19:15.840Z,0
2023-05-15T02:20:32.139Z,0
2023-05-15T02:21:48.442Z,0
2023-05-15T02:23:04.727Z,0
2023-05-15T02:24:20.047Z,0
2023-05-15T02:25:36.345Z,0
2023-05-15T02:26:52.641Z,0
2023-05-15T02:28:08.946Z,0
2023-05-15T02:29:25.236Z,0
2023-05-15T02:30:41.514Z,0
2023-05-15T02:31:57.809Z,0
2023-05-15T02:33:14.110Z,0
2023-05-15T02:34:30.410Z,0
2023-05-15T02:35:46.692Z,0
2023-05-15T02:37:02.998Z,0
2023-05-15T02:38:19.294Z,0
2023-05-15T02:39:35.577Z,0
2023-05-15T02:40:50.884Z,0
2023-05-15T02:42:07.187Z,0
2023-05-15T02:43:23.478Z,0
2023-05-15T02:44:39.764Z,0
2023-05-15T02:45:56.077Z,0
2023-05-15T02:47:12.369Z,0
2023-05-15T02:48:28.665Z,0
2023-05-15T02:49:44.957Z,0
2023-05-15T02:51:01.244Z,0
2023-05-15T02:52:17.506Z,0
2023-05-15T02:53:33.743Z,0
2023-05-15T02:54:49.974Z,0
2023-05-15T02:56:06.288Z,0
2023-05-15T02:57:21.537Z,0
2023-05-15T02:58:37.838Z,0
2023-05-15T02:59:54.127Z,0
2023-05-15T03:01:10.418Z,0
2023-05-15T03:02:26.721Z,0
2023-05-15T03:03:42.974Z,0
2023-05-15T03:04:59.220Z,0
2023-05-15T03:06:15.454Z,0
2023-05-15T03:07:31.737Z,0
2023-05-15T03:08:48.054Z,0
2023-05-15T03:10:04.349Z,0
2023-05-15T03:11:20.598Z,0
2023-05-15T03:12:36.823Z,0
2023-05-15T03:13:52.078Z,0
2023-05-15T03:15:08.319Z,0
2023-05-15T03:16:24.578Z,0
2023-05-15T03:17:40.819Z,0
2023-05-15T03:18:57.064Z,0
2023-05-15T03:21:29.529Z,0
2023-05-15T03:22:45.784Z,0
2023-05-15T03:24:02.021Z,0
2023-05-15T03:25:18.244Z,0
2023-05-15T03:26:34.492Z,0
2023-05-15T03:29:06.977Z,0
2023-05-15T03:30:22.230Z,0
2023-05-15T03:31:38.474Z,0
2023-05-15T03:32:54.000Z,0
2023-05-15T03:34:10.955Z,0
2023-05-15T03:35:27.197Z,0
2023-05-15T03:36:43.433Z,0
2023-05-15T03:37:59.681Z,0
2023-05-15T03:39:15.909Z,0
2023-05-15T03:40:32.153Z,0
2023-05-15T03:41:48.393Z,0
2023-05-15T03:43:04.000Z,0
2023-05-15T03:44:20.880Z,0
2023-05-15T03:45:37.123Z,0
2023-05-15T03:46:52.381Z,0
2023-05-15T03:48:08.607Z,0
2023-05-15T03:49:24.844Z,0
2023-05-15T03:50:41.093Z,0
2023-05-15T03:51:57.331Z,0
2023-05-15T03:53:13.571Z,0
2023-05-15T03:54:29.819Z,0
2023-05-15T03:55:46.049Z,0
2023-05-15T03:57:02.291Z,0
2023-05-15T03:58:18.545Z,0
2023-05-15T03:59:34.784Z,0
2023-05-15T04:00:51.031Z,0
2023-05-15T04:02:07.269Z,0
2023-05-15T04:03:22.512Z,0
2023-05-15T04:04:38.750Z,0
2023-05-15T04:05:54.987Z,0
2023-05-15T04:07:11.247Z,0
2023-05-15T04:08:27.479Z,0
2023-05-15T04:09:43.734Z,0
2023-05-15T04:10:59.967Z,0
2023-05-15T04:12:16.199Z,0
2023-05-15T04:13:32.430Z,0
2023-05-15T04:14:48.681Z,5
2023-05-15T04:16:04.917Z,5
2023-05-15T04:17:21.162Z,5
2023-05-15T04:18:37.409Z,5
2023-05-15T04:19:52.652Z,5
2023-05-15T04:21:08.890Z,5
2023-05-15T04:22:25.143Z,5
2023-05-15T04:23:41.388Z,5
2023-05-15T04:24:57.634Z,5
2023-05-15T04:26:13.865Z,5
2023-05-15T04:27:30.109Z,5
2023-05-15T04:28:46.340Z,5
2023-05-15T04:30:02.576Z,5
2023-05-15T04:31:18.830Z,5
2023-05-15T04:32:35.072Z,5
2023-05-15T04:33:51.309Z,5
2023-05-15T04:35:07.542Z,5
2023-05-15T04:36:22.797Z,5
2023-05-15T04:37:39.032Z,5
2023-05-15T04:38:55.285Z,5
2023-05-15T04:40:11.524Z,5
2023-05-15T04:41:27.769Z,5
2023-05-15T04:42:44.006Z,5
2023-05-15T04:44:00.242Z,5
2023-05-15T04:45:16.476Z,5
2023-05-15T04:46:32.717Z,5
2023-05-15T04:47:48.961Z,5
2023-05-15T04:49:05.208Z,5
2023-05-15T04:50:21.446Z,5
2023-05-15T04:51:37.686Z,5
2023-05-15T04:52:52.946Z,11
2023-05-15T04:54:09.191Z,11
2023-05-15T04:55:25.430Z,11
2023-05-15T04:56:41.665Z,11
2023-05-15T04:57:57.913Z,11
2023-05-15T04:59:14.150Z,11
2023-05-15T05:00:30.398Z,11
2023-05-15T05:01:46.623Z,11
2023-05-15T05:03:02.867Z,11
2023-05-15T05:04:19.120Z,11
2023-05-15T05:05:35.339Z,11
2023-05-15T05:06:51.587Z,11
2023-05-15T05:08:07.835Z,11
2023-05-15T05:09:23.081Z,11
2023-05-15T05:10:39.317Z,11
2023-05-15T05:11:55.567Z,11
2023-05-15T05:13:11.804Z,16
2023-05-15T05:14:28.044Z,16
2023-05-15T05:15:44.282Z,16
2023-05-15T05:17:00.523Z,16
2023-05-15T05:18:16.775Z,16
2023-05-15T05:19:33.011Z,16
2023-05-15T05:20:49.253Z,16
2023-05-15T05:22:05.489Z,16
2023-05-15T05:23:21.733Z,16
2023-05-15T05:24:37.964Z,16
2023-05-15T05:25:53.225Z,16
2023-05-15T05:27:09.466Z,16
2023-05-15T05:28:25.707Z,16
2023-05-15T05:29:41.950Z,16
2023-05-15T05:30:58.198Z,16
2023-05-15T05:32:14.421Z,16
2023-05-15T05:33:30.663Z,16
2023-05-15T05:34:46.903Z,22
2023-05-15T05:36:03.157Z,22
2023-05-15T05:37:19.392Z,22
2023-05-15T05:38:35.639Z,22
2023-05-15T05:39:51.863Z,22
2023-05-15T05:41:08.115Z,22
2023-05-15T05:42:23.377Z,22
2023-05-15T05:43:39.603Z,22
2023-05-15T05:44:55.000Z,22
2023-05-15T05:46:12.093Z,28
2023-05-15T05:47:28.335Z,28
2023-05-15T05:48:44.578Z,28
2023-05-15T05:49:59.840Z,22
2023-05-15T05:51:16.067Z,22
2023-05-15T05:52:32.314Z,22
2023-05-15T05:53:48.545Z,28
2023-05-15T05:55:04.783Z,33
2023-05-15T05:56:21.037Z,22
2023-05-15T05:57:37.269Z,28
2023-05-15T05:58:53.512Z,22
2023-05-15T06:00:09.767Z,22
2023-05-15T06:01:25.994Z,28
2023-05-15T06:02:42.233Z,28
2023-05-15T06:03:58.485Z,33
2023-05-15T06:05:14.712Z,33
2023-05-15T06:06:29.972Z,33
2023-05-15T06:07:46.210Z,33
2023-05-15T06:09:02.460Z,33
2023-05-15T06:10:18.688Z,33
2023-05-15T06:11:34.938Z,33
2023-05-15T06:12:51.178Z,28
2023-05-15T06:14:07.423Z,28
2023-05-15T06:15:23.651Z,39
2023-05-15T06:16:39.901Z,39
2023-05-15T06:17:56.129Z,33
2023-05-15T06:19:12.369Z,33
2023-05-15T06:20:28.614Z,28
2023-05-15T06:21:44.857Z,28
2023-05-15T06:23:00.124Z,28
2023-05-15T06:24:16.346Z,28
2023-05-15T06:25:32.595Z,28
2023-05-15T06:26:48.834Z,33
2023-05-15T06:28:05.076Z,33
2023-05-15T06:29:21.317Z,33
2023-05-15T06:30:37.555Z,33
2023-05-15T06:31:53.792Z,33
2023-05-15T06:33:10.035Z,33
2023-05-15T06:34:26.280Z,28
2023-05-15T06:35:42.511Z,22
2023-05-15T06:36:58.764Z,22
2023-05-15T06:38:15.003Z,22
2023-05-15T06:39:30.248Z,33
2023-05-15T06:40:46.496Z,33
2023-05-15T06:42:02.745Z,28
2023-05-15T06:43:18.969Z,28
2023-05-15T06:44:35.225Z,22
2023-05-15T06:45:51.449Z,28
2023-05-15T06:47:07.700Z,33
2023-05-15T06:48:23.939Z,22
2023-05-15T06:49:40.175Z,22
2023-05-15T06:50:56.428Z,28
2023-05-15T06:52:12.660Z,22
2023-05-15T06:53:28.906Z,22
2023-05-15T06:54:45.153Z,28
2023-05-15T06:56:00.399Z,28
2023-05-15T06:57:16.628Z,33
2023-05-15T06:58:32.882Z,33
2023-05-15T06:59:49.115Z,33
2023-05-15T07:01:05.352Z,33
2023-05-15T07:02:21.600Z,33
2023-05-15T07:03:37.841Z,33
2023-05-15T07:04:54.085Z,33
2023-05-15T07:06:10.315Z,33
2023-05-15T07:07:26.555Z,33
2023-05-15T07:08:42.803Z,33
2023-05-15T07:09:59.030Z,33
2023-05-15T07:11:15.270Z,33
2023-05-15T07:12:30.544Z,33
2023-05-15T07:13:46.769Z,33
2023-05-15T07:15:03.009Z,33
2023-05-15T07:16:19.261Z,33
2023-05-15T07:17:35.497Z,33
2023-05-15T07:18:51.737Z,33
2023-05-15T07:20:07.979Z,33
2023-05-15T07:21:24.223Z,33
2023-05-15T07:22:40.463Z,33
2023-05-15T07:23:56.703Z,33
2023-05-15T07:25:12.944Z,33
2023-05-15T07:26:29.186Z,33
2023-05-15T07:27:45.416Z,33
2023-05-15T07:29:00.683Z,33
2023-05-15T07:30:16.925Z,33
2023-05-15T07:31:33.147Z,33
2023-05-15T07:32:49.398Z,33
2023-05-15T07:34:05.636Z,39
2023-05-15T07:35:21.879Z,39
2023-05-15T07:36:38.128Z,39
2023-05-15T07:37:54.359Z,39
2023-05-15T07:39:10.603Z,39
2023-05-15T07:40:26.841Z,39
2023-05-15T07:41:43.070Z,39
2023-05-15T07:42:59.323Z,39
2023-05-15T07:44:15.549Z,39
2023-05-15T07:45:30.805Z,39
2023-05-15T07:46:47.060Z,39
2023-05-15T07:48:03.281Z,39
2023-05-15T07:49:19.532Z,39
2023-05-15T07:50:35.774Z,39
2023-05-15T07:51:52.017Z,39
2023-05-15T07:53:08.249Z,39
2023-05-15T07:54:24.504Z,39
2023-05-15T07:55:40.739Z,45
2023-05-15T07:56:56.970Z,45
2023-05-15T07:58:13.212Z,45
2023-05-15T07:59:29.445Z,45
2023-05-15T08:00:45.704Z,45
2023-05-15T08:02:00.951Z,45
2023-05-15T08:03:17.197Z,45
2023-05-15T08:04:33.435Z,45
2023-05-15T08:05:49.664Z,45
2023-05-15T08:07:05.902Z,45
2023-05-15T08:08:22.152Z,45
2023-05-15T08:09:38.397Z,45
2023-05-15T08:10:54.641Z,45
2023-05-15T08:12:10.882Z,45
2023-05-15T08:13:27.116Z,45
2023-05-15T08:14:43.353Z,45
2023-05-15T08:15:59.604Z,45
2023-05-15T08:17:15.845Z,45
2023-05-15T08:18:31.097Z,45
2023-05-15T08:19:47.329Z,45
2023-05-15T08:21:03.585Z,45
2023-05-15T08:22:19.821Z,45
2023-05-15T08:23:36.052Z,45
2023-05-15T08:24:52.305Z,45
2023-05-15T08:26:08.528Z,45
2023-05-15T08:27:24.770Z,45
2023-05-15T08:28:41.023Z,45
2023-05-15T08:29:57.259Z,45
2023-05-15T08:31:13.507Z,45
2023-05-15T08:32:29.736Z,45
2023-05-15T08:33:45.981Z,50
2023-05-15T08:35:01.231Z,45
2023-05-15T08:36:17.458Z,45
2023-05-15T08:37:33.703Z,50
2023-05-15T08:38:49.940Z,50
2023-05-15T08:40:06.187Z,50
2023-05-15T08:41:22.423Z,50
2023-05-15T08:42:38.663Z,45
2023-05-15T08:43:54.906Z,50
2023-05-15T08:45:11.160Z,50
2023-05-15T08:46:27.394Z,50
2023-05-15T08:47:43.622Z,50
2023-05-15T08:48:59.868Z,50
2023-05-15T08:50:16.114Z,50
2023-05-15T08:51:31.368Z,50
2023-05-15T08:52:47.607Z,50
2023-05-15T08:54:03.848Z,50
2023-05-15T08:55:20.092Z,50
2023-05-15T08:56:36.326Z,50
2023-05-15T08:57:52.577Z,56
2023-05-15T08:59:08.805Z,56
2023-05-15T09:00:25.052Z,45
2023-05-15T09:01:41.297Z,56
2023-05-15T09:02:57.539Z,56
2023-05-15T09:04:13.776Z,56
2023-05-15T09:05:30.018Z,56
2023-05-15T09:06:46.248Z,61
2023-05-15T09:08:01.501Z,28
2023-05-15T09:09:17.759Z,22
2023-05-15T09:10:33.992Z,61
2023-05-15T09:11:50.231Z,61
2023-05-15T09:13:06.000Z,56
2023-05-15T09:14:22.725Z,61
2023-05-15T09:15:38.951Z,50
2023-05-15T09:16:55.201Z,56
2023-05-15T09:18:11.441Z,50
2023-05-15T09:19:27.673Z,56
2023-05-15T09:20:43.917Z,61
2023-05-15T09:22:00.170Z,61
2023-05-15T09:23:16.406Z,61
2023-05-15T09:24:31.649Z,50
2023-05-15T09:25:47.903Z,73
2023-05-15T09:27:04.141Z,50
2023-05-15T09:28:20.381Z,50
2023-05-15T09:29:36.623Z,67
2023-05-15T09:30:52.856Z,45
2023-05-15T09:32:09.091Z,28
2023-05-15T09:33:25.344Z,39
2023-05-15T09:34:41.589Z,61
2023-05-15T09:35:57.814Z,50
2023-05-15T09:37:14.070Z,50
2023-05-15T09:38:30.295Z,50
2023-05-15T09:39:46.542Z,50
2023-05-15T09:41:01.806Z,33
2023-05-15T09:42:18.047Z,50
2023-05-15T09:43:34.270Z,50
2023-05-15T09:44:50.507Z,45
2023-05-15T09:46:06.762Z,33
2023-05-15T09:47:23.001Z,33
2023-05-15T09:48:39.250Z,33
2023-05-15T09:49:55.475Z,33
2023-05-15T09:51:11.725Z,28
2023-05-15T09:52:27.957Z,33
2023-05-15T09:53:44.201Z,33
2023-05-15T09:55:00.435Z,33
2023-05-15T09:56:16.685Z,33
2023-05-15T09:57:31.946Z,39
2023-05-15T09:58:48.169Z,33
2023-05-15T10:00:04.414Z,39
2023-05-15T10:01:20.651Z,39
2023-05-15T10:02:36.898Z,39
2023-05-15T10:03:53.140Z,39
2023-05-15T10:05:08.405Z,39
2023-05-15T10:06:24.640Z,39
2023-05-15T10:07:40.874Z,39
2023-05-15T10:08:57.108Z,39
2023-05-15T10:10:13.353Z,45
2023-05-15T10:11:29.596Z,45
2023-05-15T10:12:45.844Z,45
2023-05-15T10:14:02.088Z,45
2023-05-15T10:15:18.318Z,45
2023-05-15T10:16:34.562Z,45
2023-05-15T10:17:50.814Z,45
2023-05-15T10:19:07.040Z,45
2023-05-15T10:20:23.290Z,45
2023-05-15T10:21:38.534Z,45
2023-05-15T10:22:54.773Z,45
2023-05-15T10:24:11.018Z,45
2023-05-15T10:25:27.252Z,50
2023-05-15T10:26:43.507Z,50
2023-05-15T10:27:59.746Z,50
2023-05-15T10:29:15.970Z,45
2023-05-15T10:30:32.222Z,45
2023-05-15T10:31:48.457Z,56
2023-05-15T10:33:04.703Z,56
2023-05-15T10:34:20.938Z,56
2023-05-15T10:35:37.191Z,56
2023-05-15T10:36:53.419Z,56
2023-05-15T10:38:08.687Z,56
2023-05-15T10:39:24.929Z,50
2023-05-15T10:40:41.149Z,56
2023-05-15T10:41:57.391Z,56
2023-05-15T10:43:13.639Z,61
2023-05-15T10:44:29.868Z,73
2023-05-15T10:45:46.123Z,90
2023-05-15T10:47:02.363Z,67
2023-05-15T10:48:18.587Z,67
2023-05-15T10:49:34.843Z,84
2023-05-15T10:50:51.081Z,78
2023-05-15T10:52:07.310Z,73
2023-05-15T10:53:23.559Z,90
2023-05-15T10:54:38.813Z,90
2023-05-15T10:55:55.049Z,67
2023-05-15T10:57:11.302Z,56
2023-05-15T10:58:27.546Z,78
2023-05-15T10:59:43.766Z,78
2023-05-15T11:01:00.005Z,39
2023-05-15T11:02:16.262Z,33
2023-05-15T11:03:32.498Z,39
2023-05-15T11:04:48.730Z,73
2023-05-15T11:06:04.975Z,67
2023-05-15T11:07:21.217Z,50
2023-05-15T11:08:37.448Z,45
2023-05-15T11:09:53.688Z,67
2023-05-15T11:11:08.950Z,45
2023-05-15T11:12:25.206Z,33
2023-05-15T11:13:41.431Z,28
2023-05-15T11:14:57.676Z,28
2023-05-15T11:16:13.923Z,28
2023-05-15T11:17:30.158Z,73
2023-05-15T11:18:46.414Z,73
2023-05-15T11:20:02.640Z,73
2023-05-15T11:21:18.885Z,73
2023-05-15T11:22:35.125Z,67
2023-05-15T11:23:51.362Z,56
2023-05-15T11:25:07.601Z,50
2023-05-15T11:26:23.848Z,50
2023-05-15T11:27:39.106Z,45
2023-05-15T11:28:55.348Z,33
2023-05-15T11:30:11.580Z,45
2023-05-15T11:31:27.816Z,33
2023-05-15T11:32:44.069Z,33
2023-05-15T11:34:00.300Z,67
2023-05-15T11:35:16.550Z,73
2023-05-15T11:36:32.780Z,39
2023-05-15T11:37:49.031Z,78
2023-05-15T11:39:05.265Z,61
2023-05-15T11:40:21.509Z,67
2023-05-15T11:41:37.745Z,67
2023-05-15T11:42:53.983Z,28
2023-05-15T11:44:09.237Z,28
2023-05-15T11:45:25.484Z,28
2023-05-15T11:46:41.713Z,28
2023-05-15T11:47:57.952Z,28
2023-05-15T11:49:14.205Z,33
2023-05-15T11:50:30.450Z,67
2023-05-15T11:51:46.678Z,67
2023-05-15T11:53:02.925Z,56
2023-05-15T11:54:19.160Z,39
2023-05-15T11:55:35.395Z,67
2023-05-15T11:56:51.644Z,39
2023-05-15T11:58:07.876Z,45
2023-05-15T11:59:24.123Z,39
2023-05-15T12:00:39.383Z,45
2023-05-15T12:01:55.623Z,45
2023-05-15T12:03:11.872Z,56
2023-05-15T12:04:28.101Z,45
2023-05-15T12:05:44.349Z,39
2023-05-15T12:07:00.577Z,50
2023-05-15T12:08:16.828Z,33
2023-05-15T12:09:33.064Z,33
2023-05-15T12:10:49.296Z,33
2023-05-15T12:12:05.534Z,28
2023-05-15T12:13:21.792Z,28
2023-05-15T12:14:38.023Z,28
2023-05-15T12:15:54.262Z,28
2023-05-15T12:17:09.511Z,28
2023-05-15T12:18:25.749Z,28
2023-05-15T12:19:42.008Z,28
2023-05-15T12:20:58.250Z,28
2023-05-15T12:22:14.476Z,28
2023-05-15T12:23:30.731Z,28
2023-05-15T12:24:46.957Z,28
2023-05-15T12:26:03.195Z,28
2023-05-15T12:27:19.441Z,28
2023-05-15T12:28:35.680Z,28
2023-05-15T12:29:51.912Z,28
2023-05-15T12:31:08.154Z,28
2023-05-15T12:32:24.396Z,28
2023-05-15T12:33:39.656Z,28
2023-05-15T12:34:55.896Z,33
2023-05-15T12:36:12.131Z,33
2023-05-15T12:37:28.374Z,33
2023-05-15T12:38:44.620Z,33
2023-05-15T12:40:00.856Z,33
2023-05-15T12:41:17.102Z,33
2023-05-15T12:42:33.329Z,33
2023-05-15T12:43:49.583Z,33
2023-05-15T12:45:05.812Z,33
2023-05-15T12:46:22.051Z,33
2023-05-15T12:47:38.301Z,39
2023-05-15T12:48:54.544Z,39
2023-05-15T12:50:09.793Z,39
2023-05-15T12:51:26.029Z,39
2023-05-15T12:52:42.270Z,39
2023-05-15T12:53:58.518Z,45
2023-05-15T12:55:14.757Z,45
2023-05-15T12:56:31.006Z,45
2023-05-15T12:57:47.234Z,45
2023-05-15T12:59:03.473Z,45
2023-05-15T13:00:19.715Z,45
2023-05-15T13:01:35.947Z,45
2023-05-15T13:02:52.194Z,45
2023-05-15T13:04:08.431Z,45
2023-05-15T13:05:24.686Z,39
2023-05-15T13:06:39.933Z,45
2023-05-15T13:07:56.170Z,39
2023-05-15T13:09:12.419Z,39
2023-05-15T13:10:28.650Z,33
2023-05-15T13:11:44.887Z,33
2023-05-15T13:13:01.128Z,28
2023-05-15T13:14:17.380Z,33
2023-05-15T13:15:33.621Z,33
2023-05-15T13:16:49.850Z,33
2023-05-15T13:18:06.101Z,33
2023-05-15T13:19:22.344Z,33
2023-05-15T13:20:38.571Z,33
2023-05-15T13:21:54.818Z,33
2023-05-15T13:23:10.064Z,33
2023-05-15T13:24:26.302Z,33
2023-05-15T13:25:42.550Z,33
2023-05-15T13:26:58.784Z,33
2023-05-15T13:28:15.027Z,33
2023-05-15T13:29:31.269Z,33
2023-05-15T13:30:47.511Z,39
2023-05-15T13:32:03.757Z,33
2023-05-15T13:33:19.991Z,33
2023-05-15T13:34:36.233Z,33
2023-05-15T13:35:52.474Z,28
2023-05-15T13:37:08.715Z,28
2023-05-15T13:38:24.950Z,28
2023-05-15T13:39:40.220Z,33
2023-05-15T13:40:56.458Z,33
2023-05-15T13:42:12.682Z,28
2023-05-15T13:43:28.933Z,28
2023-05-15T13:44:45.161Z,22
2023-05-15T13:46:01.403Z,33
2023-05-15T13:47:17.645Z,39
2023-05-15T13:48:33.895Z,39
2023-05-15T13:49:50.123Z,39
2023-05-15T13:51:06.378Z,28
2023-05-15T13:52:22.606Z,33
2023-05-15T13:53:38.859Z,39
2023-05-15T13:54:55.084Z,33
2023-05-15T13:56:10.337Z,45
2023-05-15T13:57:26.590Z,45
2023-05-15T13:58:42.832Z,45
2023-05-15T13:59:59.075Z,39
2023-05-15T14:01:15.315Z,39
2023-05-15T14:02:31.547Z,45
2023-05-15T14:03:47.781Z,50
2023-05-15T14:05:04.033Z,50
2023-05-15T14:06:20.265Z,33
2023-05-15T14:07:36.506Z,33
2023-05-15T14:08:52.740Z,33
2023-05-15T14:10:08.987Z,33
2023-05-15T14:11:25.240Z,33
2023-05-15T14:12:40.495Z,33
2023-05-15T14:13:56.730Z,33
2023-05-15T14:15:12.964Z,33
2023-05-15T14:16:29.211Z,33
2023-05-15T14:17:45.443Z,33
2023-05-15T14:19:01.681Z,33
2023-05-15T14:20:16.945Z,33
2023-05-15T14:21:33.200Z,33
2023-05-15T14:22:49.421Z,28
2023-05-15T14:24:05.661Z,28
2023-05-15T14:25:21.909Z,28
2023-05-15T14:26:38.146Z,28
2023-05-15T14:27:54.384Z,33
2023-05-15T14:29:10.637Z,33
2023-05-15T14:30:26.867Z,39
2023-05-15T14:31:43.101Z,39
2023-05-15T14:32:59.341Z,39
2023-05-15T14:34:15.584Z,39
2023-05-15T14:35:31.821Z,33
2023-05-15T14:36:47.089Z,33
2023-05-15T14:38:03.328Z,33
2023-05-15T14:39:19.571Z,39
2023-05-15T14:40:35.802Z,45
2023-05-15T14:41:52.055Z,50
2023-05-15T14:43:08.297Z,45
2023-05-15T14:44:24.520Z,45
2023-05-15T14:45:40.771Z,45
2023-05-15T14:46:57.003Z,45
2023-05-15T14:48:13.246Z,45
2023-05-15T14:49:29.482Z,33
2023-05-15T14:50:45.724Z,33
2023-05-15T14:52:01.966Z,33
2023-05-15T14:53:17.225Z,33
2023-05-15T14:54:33.459Z,28
2023-05-15T14:55:49.716Z,28
2023-05-15T14:57:05.941Z,28
2023-05-15T14:58:22.197Z,28
2023-05-15T14:59:38.431Z,28
2023-05-15T15:00:54.672Z,28
2023-05-15T15:02:10.906Z,28
2023-05-15T15:03:27.154Z,28
2023-05-15T15:04:43.395Z,33
2023-05-15T15:05:59.624Z,28
2023-05-15T15:07:15.874Z,28
2023-05-15T15:08:32.105Z,33
2023-05-15T15:09:47.365Z,33
2023-05-15T15:11:03.610Z,33
2023-05-15T15:12:19.841Z,39
2023-05-15T15:13:36.090Z,39
2023-05-15T15:14:52.326Z,39
2023-05-15T15:16:08.575Z,45
2023-05-15T15:17:24.814Z,61
2023-05-15T15:18:41.054Z,73
2023-05-15T15:19:57.281Z,28
2023-05-15T15:21:13.529Z,22
2023-05-15T15:22:29.767Z,22
2023-05-15T15:23:46.012Z,22
2023-05-15T15:25:02.237Z,22
2023-05-15T15:26:17.510Z,22
2023-05-15T15:27:33.751Z,28
2023-05-15T15:28:49.978Z,28
2023-05-15T15:30:06.227Z,28
2023-05-15T15:31:22.463Z,33
2023-05-15T15:32:38.710Z,33
2023-05-15T15:33:54.942Z,28
2023-05-15T15:35:11.191Z,28
2023-05-15T15:36:27.427Z,28
2023-05-15T15:37:43.667Z,28
2023-05-15T15:38:59.910Z,33
2023-05-15T15:40:16.152Z,33
2023-05-15T15:41:32.398Z,28
2023-05-15T15:42:47.654Z,22
2023-05-15T15:44:03.886Z,28
2023-05-15T15:45:20.117Z,28
2023-05-15T15:46:36.361Z,28
2023-05-15T15:47:52.606Z,28
2023-05-15T15:49:08.842Z,22
2023-05-15T15:50:25.081Z,22
2023-05-15T15:51:41.319Z,22
2023-05-15T15:52:57.560Z,22
2023-05-15T15:54:13.805Z,22
2023-05-15T15:55:30.041Z,28
2023-05-15T15:56:46.294Z,28
2023-05-15T15:58:02.534Z,28
2023-05-15T15:59:17.778Z,28
2023-05-15T16:00:34.029Z,28
2023-05-15T16:01:50.271Z,22
2023-05-15T16:03:06.499Z,22
2023-05-15T16:04:22.752Z,22
2023-05-15T16:05:38.981Z,22
2023-05-15T16:06:55.233Z,22
2023-05-15T16:08:11.461Z,22
2023-05-15T16:09:27.708Z,45
2023-05-15T16:10:43.933Z,90
2023-05-15T16:12:00.193Z,56
2023-05-15T16:13:16.425Z,33
2023-05-15T16:14:32.658Z,33
2023-05-15T16:15:47.914Z,33
2023-05-15T16:17:04.156Z,33
2023-05-15T16:18:20.392Z,33
2023-05-15T16:19:36.631Z,33
2023-05-15T16:20:52.881Z,28
2023-05-15T16:22:09.127Z,33
2023-05-15T16:23:25.374Z,33
2023-05-15T16:24:41.603Z,33
2023-05-15T16:25:57.836Z,33
2023-05-15T16:27:14.082Z,33
2023-05-15T16:28:30.320Z,28
2023-05-15T16:29:46.553Z,28
2023-05-15T16:31:02.804Z,22
2023-05-15T16:32:18.060Z,22
2023-05-15T16:33:34.299Z,22
2023-05-15T16:34:50.542Z,50
2023-05-15T16:36:06.773Z,22
2023-05-15T16:37:23.027Z,16
2023-05-15T16:38:39.251Z,22
2023-05-15T16:39:55.493Z,106
2023-05-15T16:41:11.746Z,28
2023-05-15T16:42:27.993Z,28
2023-05-15T16:43:44.233Z,22
2023-05-15T16:45:00.461Z,22
2023-05-15T16:46:16.691Z,16
2023-05-15T16:47:32.949Z,16
2023-05-15T16:48:48.207Z,16
2023-05-15T16:50:04.447Z,22
2023-05-15T16:51:20.685Z,22
2023-05-15T16:52:36.928Z,22
2023-05-15T16:53:53.156Z,22
2023-05-15T16:55:09.405Z,16
2023-05-15T16:56:25.643Z,16
2023-05-15T16:57:41.872Z,22
2023-05-15T16:58:58.117Z,16
2023-05-15T17:00:14.361Z,16
2023-05-15T17:01:30.591Z,16
2023-05-15T17:02:46.829Z,11
2023-05-15T17:04:03.076Z,11
2023-05-15T17:05:18.337Z,11
2023-05-15T17:06:34.579Z,11
2023-05-15T17:07:50.812Z,11
2023-05-15T17:09:07.058Z,5
2023-05-15T17:10:23.301Z,5
2023-05-15T17:11:39.533Z,5
2023-05-15T17:12:55.775Z,5
2023-05-15T17:14:12.029Z,5
2023-05-15T17:15:28.260Z,5
2023-05-15T17:16:44.504Z,5
2023-05-15T17:18:00.738Z,0
2023-05-15T17:19:16.975Z,0
2023-05-15T17:20:33.225Z,0
2023-05-15T17:21:48.476Z,0
2023-05-15T17:23:04.715Z,0
2023-05-15T17:24:20.951Z,0
2023-05-15T17:25:37.201Z,0
2023-05-15T17:26:53.429Z,5
2023-05-15T17:28:09.682Z,5
2023-05-15T17:29:25.913Z,5
2023-05-15T17:30:42.152Z,5
2023-05-15T17:31:58.404Z,5
2023-05-15T17:33:14.645Z,5
2023-05-15T17:34:30.873Z,5
2023-05-15T17:35:47.115Z,5
2023-05-15T17:37:03.350Z,5
2023-05-15T17:38:18.607Z,5
2023-05-15T17:39:34.854Z,5
2023-05-15T17:40:51.090Z,5
2023-05-15T17:42:07.343Z,5
2023-05-15T17:43:23.590Z,5
2023-05-15T17:44:39.810Z,5
2023-05-15T17:45:56.044Z,5
2023-05-15T17:47:12.284Z,5
2023-05-15T17:48:28.533Z,5
2023-05-15T17:49:44.769Z,5
2023-05-15T17:51:01.025Z,5
2023-05-15T17:52:17.254Z,5
2023-05-15T17:53:33.499Z,5
2023-05-15T17:54:48.753Z,5
2023-05-15T17:56:04.986Z,5
2023-05-15T17:57:21.226Z,0
2023-05-15T17:58:37.471Z,0
2023-05-15T17:59:53.719Z,0
2023-05-15T18:01:09.964Z,5
2023-05-15T18:02:26.184Z,5
2023-05-15T18:03:42.434Z,5
2023-05-15T18:04:58.681Z,0
2023-05-15T18:06:14.911Z,0
2023-05-15T18:07:31.166Z,0
2023-05-15T18:08:47.387Z,0
2023-05-15T18:10:03.630Z,0
2023-05-15T18:11:18.887Z,0
2023-05-15T18:12:35.132Z,0
2023-05-15T18:13:51.371Z,0
2023-05-15T18:15:07.608Z,0
2023-05-15T18:16:23.845Z,0
2023-05-15T18:17:40.098Z,0
2023-05-15T18:18:56.323Z,0
2023-05-15T18:20:12.569Z,0
2023-05-15T18:21:28.811Z,0